createdAt,value
2017-07-14T00:00:23.482Z,13.92
2017-07-14T00:01:24.744Z,13.92
2017-07-14T00:02:26.033Z,13.87
2017-07-14T00:03:27.295Z,13.87
2017-07-14T00:04:28.531Z,13.84
2017-07-14T00:05:29.787Z,13.74
2017-07-14T00:06:31.018Z,13.77
2017-07-14T00:07:32.269Z,13.83
2017-07-14T00:08:33.614Z,13.73
2017-07-14T00:09:34.860Z,13.73
2017-07-14T00:10:36.112Z,13.7
2017-07-14T00:11:37.372Z,13.8
2017-07-14T00:12:38.640Z,13.79
2017-07-14T00:13:39.920Z,13.76
2017-07-14T00:14:41.162Z,13.77
2017-07-14T00:15:42.449Z,13.77
2017-07-14T00:16:43.664Z,13.7
2017-07-14T00:17:44.907Z,13.8
2017-07-14T00:18:46.153Z,13.76
2017-07-14T00:19:47.405Z,13.71
2017-07-14T00:20:48.657Z,13.65
2017-07-14T00:21:49.905Z,13.65
2017-07-14T00:22:51.228Z,13.69
2017-07-14T00:23:52.493Z,13.65
2017-07-14T00:24:53.771Z,13.55
2017-07-14T00:25:55.019Z,13.63
2017-07-14T00:26:56.305Z,13.55
2017-07-14T00:27:57.531Z,13.49
2017-07-14T00:28:58.776Z,13.51
2017-07-14T00:30:00.086Z,13.52
2017-07-14T00:31:01.351Z,13.37
2017-07-14T00:32:02.599Z,13.38
2017-07-14T00:33:03.930Z,13.33
2017-07-14T00:34:05.305Z,13.33
2017-07-14T00:35:06.578Z,13.3
2017-07-14T00:36:07.899Z,13.22
2017-07-14T00:37:09.140Z,13.15
2017-07-14T00:38:10.380Z,13.14
2017-07-14T00:39:11.638Z,13.04
2017-07-14T00:40:12.877Z,13.07
2017-07-14T00:41:14.268Z,13.03
2017-07-14T00:42:15.548Z,13.02
2017-07-14T00:43:16.787Z,12.89
2017-07-14T00:44:18.043Z,12.97
2017-07-14T00:45:19.283Z,12.95
2017-07-14T00:46:20.566Z,12.84
2017-07-14T00:47:21.799Z,12.96
2017-07-14T00:48:23.091Z,12.89
2017-07-14T00:49:24.318Z,12.85
2017-07-14T00:50:25.587Z,12.85
2017-07-14T00:51:26.810Z,12.88
2017-07-14T00:52:28.058Z,12.78
2017-07-14T00:53:29.309Z,12.77
2017-07-14T00:54:30.600Z,12.74
2017-07-14T00:55:31.947Z,12.81
2017-07-14T00:56:33.192Z,12.79
2017-07-14T00:57:34.440Z,12.84
2017-07-14T00:58:35.678Z,12.78
2017-07-14T00:59:36.923Z,12.75
2017-07-14T01:00:38.213Z,12.75
2017-07-14T01:01:39.464Z,12.69
2017-07-14T01:02:40.685Z,12.74
2017-07-14T01:03:41.953Z,12.71
2017-07-14T01:04:43.170Z,12.74
2017-07-14T01:05:44.473Z,12.75
2017-07-14T01:06:45.721Z,12.71
2017-07-14T01:07:46.977Z,12.62
2017-07-14T01:08:48.218Z,12.62
2017-07-14T01:09:49.484Z,12.57
2017-07-14T01:10:50.708Z,12.48
2017-07-14T01:11:51.959Z,12.49
2017-07-14T01:12:53.202Z,12.44
2017-07-14T01:13:54.449Z,12.45
2017-07-14T01:14:55.684Z,12.44
2017-07-14T01:15:56.953Z,12.38
2017-07-14T01:16:58.176Z,12.39
2017-07-14T01:17:59.435Z,12.41
2017-07-14T01:19:00.830Z,12.41
2017-07-14T01:20:02.108Z,12.41
2017-07-14T01:21:03.355Z,12.29
2017-07-14T01:22:04.600Z,12.26
2017-07-14T01:23:05.839Z,12.29
2017-07-14T01:24:07.086Z,12.38
2017-07-14T01:25:08.429Z,12.33
2017-07-14T01:26:09.791Z,12.19
2017-07-14T01:27:11.059Z,12.19
2017-07-14T01:28:12.282Z,12.13
2017-07-14T01:29:13.529Z,12.15
2017-07-14T01:30:14.764Z,12.12
2017-07-14T01:31:16.011Z,12.12
2017-07-14T01:32:17.453Z,12.11
2017-07-14T01:33:18.606Z,12.11
2017-07-14T01:34:19.838Z,12.19
2017-07-14T01:35:21.085Z,12.12
2017-07-14T01:36:22.355Z,12.11
2017-07-14T01:37:23.667Z,12.09
2017-07-14T01:38:24.906Z,12.06
2017-07-14T01:39:26.213Z,12.15
2017-07-14T01:40:27.457Z,12.12
2017-07-14T01:41:28.695Z,12.15
2017-07-14T01:42:29.943Z,12.2
2017-07-14T01:43:31.186Z,12.23
2017-07-14T01:44:32.432Z,12.23
2017-07-14T01:45:33.672Z,12.13
2017-07-14T01:46:34.975Z,12.12
2017-07-14T01:47:36.247Z,12.16
2017-07-14T01:48:37.467Z,12.15
2017-07-14T01:49:38.706Z,12.2
2017-07-14T01:50:39.946Z,12.16
2017-07-14T01:51:41.249Z,12.19
2017-07-14T01:52:42.652Z,12.2
2017-07-14T01:53:43.935Z,12.16
2017-07-14T01:54:45.172Z,12.19
2017-07-14T01:55:46.446Z,12.15
2017-07-14T01:56:47.768Z,12.13
2017-07-14T01:57:49.002Z,12.12
2017-07-14T01:58:50.239Z,12.2
2017-07-14T01:59:51.476Z,12.19
2017-07-14T02:00:52.727Z,12.15
2017-07-14T02:01:53.993Z,12.26
2017-07-14T02:02:55.254Z,12.3
2017-07-14T02:03:56.501Z,12.39
2017-07-14T02:04:57.848Z,12.39
2017-07-14T02:05:59.107Z,12.38
2017-07-14T02:07:00.349Z,12.45
2017-07-14T02:08:01.599Z,12.41
2017-07-14T02:09:02.846Z,12.42
2017-07-14T02:10:04.126Z,12.52
2017-07-14T02:11:05.346Z,12.52
2017-07-14T02:12:06.616Z,12.57
2017-07-14T02:13:07.837Z,12.64
2017-07-14T02:14:09.111Z,12.75
2017-07-14T02:15:10.336Z,12.7
2017-07-14T02:16:11.684Z,12.7
2017-07-14T02:17:12.920Z,12.71
2017-07-14T02:18:14.160Z,12.74
2017-07-14T02:19:15.429Z,12.77
2017-07-14T02:20:16.669Z,12.89
2017-07-14T02:21:17.920Z,12.96
2017-07-14T02:22:19.181Z,12.87
2017-07-14T02:23:20.429Z,12.93
2017-07-14T02:24:21.684Z,13.02
2017-07-14T02:25:22.924Z,12.92
2017-07-14T02:26:24.193Z,12.96
2017-07-14T02:27:25.470Z,12.92
2017-07-14T02:28:26.719Z,12.95
2017-07-14T02:29:28.033Z,12.96
2017-07-14T02:30:29.333Z,12.89
2017-07-14T02:31:30.570Z,12.99
2017-07-14T02:32:31.849Z,12.99
2017-07-14T02:33:33.085Z,12.84
2017-07-14T02:34:34.324Z,12.88
2017-07-14T02:35:35.580Z,12.82
2017-07-14T02:36:36.822Z,12.78
2017-07-14T02:37:38.072Z,12.77
2017-07-14T02:38:39.316Z,12.75
2017-07-14T02:39:40.561Z,12.7
2017-07-14T02:40:41.862Z,12.62
2017-07-14T02:41:43.099Z,12.74
2017-07-14T02:42:44.377Z,12.64
2017-07-14T02:43:45.643Z,12.64
2017-07-14T02:44:46.901Z,12.57
2017-07-14T02:45:48.195Z,12.52
2017-07-14T02:46:49.474Z,12.45
2017-07-14T02:47:50.718Z,12.41
2017-07-14T02:48:52.053Z,12.37
2017-07-14T02:49:53.280Z,12.29
2017-07-14T02:50:54.520Z,12.3
2017-07-14T02:51:55.781Z,12.27
2017-07-14T02:52:57.038Z,12.12
2017-07-14T02:53:58.322Z,12.15
2017-07-14T02:54:59.702Z,12.16
2017-07-14T02:56:00.941Z,12.12
2017-07-14T02:57:02.175Z,12.02
2017-07-14T02:58:03.432Z,12.09
2017-07-14T02:59:04.680Z,12.04
2017-07-14T03:00:05.924Z,11.89
2017-07-14T03:01:07.271Z,11.9
2017-07-14T03:02:08.505Z,11.87
2017-07-14T03:03:09.754Z,11.82
2017-07-14T03:04:10.996Z,11.85
2017-07-14T03:05:12.240Z,11.72
2017-07-14T03:06:13.550Z,11.68
2017-07-14T03:07:14.811Z,11.7
2017-07-14T03:08:16.047Z,11.72
2017-07-14T03:09:17.311Z,11.7
2017-07-14T03:10:18.545Z,11.62
2017-07-14T03:11:19.785Z,11.53
2017-07-14T03:12:21.046Z,11.59
2017-07-14T03:13:22.342Z,11.52
2017-07-14T03:14:23.608Z,11.57
2017-07-14T03:15:24.856Z,11.56
2017-07-14T03:16:26.097Z,11.56
2017-07-14T03:17:27.321Z,11.53
2017-07-14T03:18:28.571Z,11.39
2017-07-14T03:19:29.811Z,11.44
2017-07-14T03:20:31.079Z,11.46
2017-07-14T03:21:32.353Z,11.44
2017-07-14T03:22:33.615Z,11.5
2017-07-14T03:23:34.861Z,11.47
2017-07-14T03:24:36.224Z,11.46
2017-07-14T03:25:37.596Z,11.43
2017-07-14T03:26:38.852Z,11.43
2017-07-14T03:27:40.098Z,11.5
2017-07-14T03:28:41.318Z,11.47
2017-07-14T03:29:42.649Z,11.46
2017-07-14T03:30:43.963Z,11.44
2017-07-14T03:31:45.206Z,11.47
2017-07-14T03:32:46.465Z,11.39
2017-07-14T03:33:47.714Z,11.44
2017-07-14T03:34:48.960Z,11.49
2017-07-14T03:35:50.212Z,11.39
2017-07-14T03:36:51.461Z,11.46
2017-07-14T03:37:52.700Z,11.47
2017-07-14T03:38:53.977Z,11.5
2017-07-14T03:39:55.230Z,11.43
2017-07-14T03:40:56.494Z,11.5
2017-07-14T03:41:57.775Z,11.44
2017-07-14T03:42:59.035Z,11.44
2017-07-14T03:44:00.274Z,11.47
2017-07-14T03:45:01.535Z,11.44
2017-07-14T03:46:02.756Z,11.43
2017-07-14T03:47:04.001Z,11.43
2017-07-14T03:48:05.244Z,11.43
2017-07-14T03:49:06.493Z,11.32
2017-07-14T03:50:07.741Z,11.32
2017-07-14T03:51:08.979Z,11.32
2017-07-14T03:52:10.227Z,11.35
2017-07-14T03:53:11.498Z,11.43
2017-07-14T03:54:12.724Z,11.35
2017-07-14T03:55:13.994Z,11.46
2017-07-14T03:56:15.237Z,11.46
2017-07-14T03:57:16.485Z,11.46
2017-07-14T03:58:17.730Z,11.44
2017-07-14T03:59:18.984Z,11.49
2017-07-14T04:00:20.222Z,11.44
2017-07-14T04:01:21.463Z,11.46
2017-07-14T04:02:22.730Z,11.5
2017-07-14T04:03:24.017Z,11.56
2017-07-14T04:04:25.249Z,11.53
2017-07-14T04:05:26.610Z,11.54
2017-07-14T04:06:27.846Z,11.59
2017-07-14T04:07:29.084Z,11.61
2017-07-14T04:08:30.343Z,11.57
2017-07-14T04:09:31.714Z,11.56
2017-07-14T04:10:32.953Z,11.68
2017-07-14T04:11:34.190Z,11.71
2017-07-14T04:12:35.439Z,11.74
2017-07-14T04:13:36.720Z,11.75
2017-07-14T04:14:37.990Z,11.83
2017-07-14T04:15:39.269Z,11.87
2017-07-14T04:16:40.551Z,11.89
2017-07-14T04:17:41.876Z,12.01
2017-07-14T04:18:43.133Z,12.01
2017-07-14T04:19:44.396Z,12.12
2017-07-14T04:20:45.723Z,12.19
2017-07-14T04:21:46.972Z,12.34
2017-07-14T04:22:48.241Z,12.39
2017-07-14T04:23:49.476Z,12.51
2017-07-14T04:24:50.725Z,12.6
2017-07-14T04:25:52.081Z,12.62
2017-07-14T04:26:53.329Z,12.69
2017-07-14T04:27:54.568Z,12.84
2017-07-14T04:28:55.838Z,12.96
2017-07-14T04:29:57.151Z,13
2017-07-14T04:30:58.372Z,13.15
2017-07-14T04:31:59.617Z,13.29
2017-07-14T04:33:00.851Z,13.37
2017-07-14T04:34:02.094Z,13.52
2017-07-14T04:35:03.370Z,13.58
2017-07-14T04:36:04.670Z,13.81
2017-07-14T04:37:05.934Z,13.88
2017-07-14T04:38:07.162Z,13.91
2017-07-14T04:39:08.446Z,14.09
2017-07-14T04:40:09.817Z,14.35
2017-07-14T04:41:11.068Z,14.6
2017-07-14T04:42:12.402Z,14.87
2017-07-14T04:43:13.649Z,15.05
2017-07-14T04:44:14.883Z,15.39
2017-07-14T04:45:16.134Z,15.85
2017-07-14T04:46:17.451Z,16.14
2017-07-14T04:47:18.690Z,16.5
2017-07-14T04:48:19.929Z,16.44
2017-07-14T04:49:21.168Z,16.52
2017-07-14T04:50:22.419Z,16.44
2017-07-14T04:51:23.665Z,16.48
2017-07-14T04:52:25.021Z,16.37
2017-07-14T04:53:26.304Z,16.26
2017-07-14T04:54:27.573Z,16.22
2017-07-14T04:55:28.830Z,16.11
2017-07-14T04:56:30.075Z,16.15
2017-07-14T04:57:31.316Z,16.11
2017-07-14T04:58:32.593Z,16.04
2017-07-14T04:59:33.830Z,15.96
2017-07-14T05:00:35.087Z,15.89
2017-07-14T05:01:36.387Z,15.89
2017-07-14T05:02:37.609Z,15.86
2017-07-14T05:03:38.856Z,15.85
2017-07-14T05:04:40.123Z,15.74
2017-07-14T05:05:41.394Z,15.78
2017-07-14T05:06:42.613Z,15.78
2017-07-14T05:07:43.873Z,15.85
2017-07-14T05:08:45.103Z,15.82
2017-07-14T05:09:46.352Z,15.89
2017-07-14T05:10:47.654Z,15.99
2017-07-14T05:11:48.901Z,16.41
2017-07-14T05:12:50.206Z,16.78
2017-07-14T05:13:51.453Z,17.25
2017-07-14T05:14:52.686Z,17.81
2017-07-14T05:15:53.961Z,18.31
2017-07-14T05:16:55.204Z,18.76
2017-07-14T05:17:56.518Z,19.36
2017-07-14T05:18:57.754Z,19.83
2017-07-14T05:19:59.007Z,20.27
2017-07-14T05:21:00.254Z,20.9
2017-07-14T05:22:01.493Z,21.54
2017-07-14T05:23:02.726Z,22.25
2017-07-14T05:24:04.002Z,22.74
2017-07-14T05:25:05.236Z,23.2
2017-07-14T05:26:06.531Z,23.71
2017-07-14T05:27:07.778Z,24.13
2017-07-14T05:28:09.027Z,24.6
2017-07-14T05:29:10.334Z,25
2017-07-14T05:30:11.587Z,25.5
2017-07-14T05:31:12.834Z,25.74
2017-07-14T05:32:14.085Z,25.82
2017-07-14T05:33:15.334Z,25.68
2017-07-14T05:34:16.636Z,25.98
2017-07-14T05:35:17.932Z,26.42
2017-07-14T05:36:19.179Z,26.83
2017-07-14T05:37:20.426Z,27.21
2017-07-14T05:38:21.688Z,27.62
2017-07-14T05:39:22.937Z,27.95
2017-07-14T05:40:24.177Z,28.16
2017-07-14T05:41:25.417Z,28.33
2017-07-14T05:42:26.682Z,28.58
2017-07-14T05:43:28.050Z,28.81
2017-07-14T05:44:29.352Z,28.91
2017-07-14T05:45:30.592Z,29.23
2017-07-14T05:46:31.863Z,29.52
2017-07-14T05:47:33.103Z,29.79
2017-07-14T05:48:34.347Z,30.08
2017-07-14T05:49:35.621Z,30.31
2017-07-14T05:50:36.938Z,30.19
2017-07-14T05:51:38.172Z,30.3
2017-07-14T05:52:39.513Z,30.62
2017-07-14T05:53:40.763Z,30.76
2017-07-14T05:54:42.017Z,30.96
2017-07-14T05:55:43.263Z,30.91
2017-07-14T05:56:44.561Z,30.84
2017-07-14T05:57:45.841Z,31.23
2017-07-14T05:58:47.074Z,31.61
2017-07-14T05:59:48.335Z,31.6
2017-07-14T06:00:49.628Z,31.75
2017-07-14T06:01:50.919Z,31.92
2017-07-14T06:02:52.198Z,32.1
2017-07-14T06:03:53.425Z,31.82
2017-07-14T06:04:54.679Z,32.11
2017-07-14T06:05:55.936Z,32.13
2017-07-14T06:06:57.247Z,32
2017-07-14T06:07:58.507Z,32.25
2017-07-14T06:08:59.795Z,32.48
2017-07-14T06:10:01.034Z,32.79
2017-07-14T06:11:02.286Z,33.04
2017-07-14T06:12:03.537Z,33.31
2017-07-14T06:13:04.792Z,33.63
2017-07-14T06:14:06.045Z,33.74
2017-07-14T06:15:07.296Z,33.83
2017-07-14T06:16:08.557Z,34.2
2017-07-14T06:17:09.816Z,33.95
2017-07-14T06:18:11.084Z,34.02
2017-07-14T06:19:12.376Z,33.22
2017-07-14T06:20:13.652Z,32.81
2017-07-14T06:21:14.963Z,33.01
2017-07-14T06:22:16.178Z,33.42
2017-07-14T06:23:17.427Z,33.74
2017-07-14T06:24:18.674Z,34.16
2017-07-14T06:25:19.969Z,34.31
2017-07-14T06:26:21.193Z,34.79
2017-07-14T06:27:22.446Z,35.15
2017-07-14T06:28:23.754Z,35.58
2017-07-14T06:29:24.983Z,35.79
2017-07-14T06:30:26.251Z,36.21
2017-07-14T06:31:27.507Z,36.27
2017-07-14T06:32:28.759Z,36.39
2017-07-14T06:33:30.085Z,36.6
2017-07-14T06:34:31.449Z,36.73
2017-07-14T06:35:32.715Z,36.72
2017-07-14T06:36:34.103Z,36.72
2017-07-14T06:37:35.416Z,36.49
2017-07-14T06:38:36.693Z,36.58
2017-07-14T06:39:37.989Z,36.52
2017-07-14T06:40:39.241Z,37.04
2017-07-14T06:41:40.505Z,37.26
2017-07-14T06:42:41.824Z,37.31
2017-07-14T06:43:43.082Z,37.56
2017-07-14T06:44:44.379Z,37.54
2017-07-14T06:45:45.617Z,37.33
2017-07-14T06:46:46.868Z,37.19
2017-07-14T06:47:48.135Z,37.38
2017-07-14T06:48:49.382Z,37.56
2017-07-14T06:49:50.648Z,37.81
2017-07-14T06:50:51.977Z,38.15
2017-07-14T06:51:53.242Z,38.3
2017-07-14T06:52:54.503Z,38.45
2017-07-14T06:53:55.779Z,38.58
2017-07-14T06:54:57.021Z,38.63
2017-07-14T06:55:58.279Z,38.57
2017-07-14T06:56:59.612Z,38.46
2017-07-14T06:58:00.872Z,38.42
2017-07-14T06:59:02.146Z,38.53
2017-07-14T07:00:03.403Z,38.86
2017-07-14T07:01:04.666Z,39.21
2017-07-14T07:02:06.114Z,39.51
2017-07-14T07:03:07.358Z,39.69
2017-07-14T07:04:08.608Z,39.88
2017-07-14T07:05:09.862Z,39.83
2017-07-14T07:06:11.133Z,40.17
2017-07-14T07:07:12.396Z,40.32
2017-07-14T07:08:13.665Z,40.69
2017-07-14T07:09:14.932Z,40.76
2017-07-14T07:10:16.209Z,40.69
2017-07-14T07:11:17.492Z,40.62
2017-07-14T07:12:18.765Z,40.64
2017-07-14T07:13:20.159Z,40.02
2017-07-14T07:14:21.429Z,39.74
2017-07-14T07:15:22.692Z,39.81
2017-07-14T07:16:23.961Z,39.56
2017-07-14T07:17:25.236Z,39.59
2017-07-14T07:18:26.518Z,39.58
2017-07-14T07:19:27.839Z,39.77
2017-07-14T07:20:29.106Z,40.12
2017-07-14T07:21:30.360Z,40.17
2017-07-14T07:22:31.618Z,40.46
2017-07-14T07:23:32.876Z,40.75
2017-07-14T07:24:34.130Z,41.05
2017-07-14T07:25:35.413Z,41.33
2017-07-14T07:26:36.661Z,40.69
2017-07-14T07:27:37.949Z,39.84
2017-07-14T07:28:39.283Z,39.59
2017-07-14T07:29:40.539Z,39.88
2017-07-14T07:30:41.798Z,40.04
2017-07-14T07:31:43.056Z,40.34
2017-07-14T07:32:44.426Z,40.76
2017-07-14T07:33:45.723Z,41.06
2017-07-14T07:34:46.992Z,41.08
2017-07-14T07:35:48.273Z,41.03
2017-07-14T07:36:49.537Z,41.12
2017-07-14T07:37:50.914Z,41.46
2017-07-14T07:38:52.208Z,41.63
2017-07-14T07:39:53.507Z,41.63
2017-07-14T07:40:54.762Z,41.9
2017-07-14T07:41:56.069Z,42.19
2017-07-14T07:42:57.334Z,42.27
2017-07-14T07:43:58.623Z,42.6
2017-07-14T07:44:59.933Z,42.46
2017-07-14T07:46:01.208Z,42.13
2017-07-14T07:47:02.526Z,42.04
2017-07-14T07:48:03.823Z,41.91
2017-07-14T07:49:05.055Z,41.82
2017-07-14T07:50:06.383Z,41.5
2017-07-14T07:51:07.698Z,41.36
2017-07-14T07:52:08.952Z,41.46
2017-07-14T07:53:10.238Z,41.28
2017-07-14T07:54:11.513Z,41.34
2017-07-14T07:55:12.784Z,41.63
2017-07-14T07:56:14.049Z,41.36
2017-07-14T07:57:15.313Z,41.29
2017-07-14T07:58:16.583Z,41.4
2017-07-14T07:59:17.840Z,41.54
2017-07-14T08:00:19.101Z,41.55
2017-07-14T08:01:20.378Z,42.03
2017-07-14T08:02:21.638Z,42.39
2017-07-14T08:03:22.919Z,42
2017-07-14T08:04:24.154Z,42.03
2017-07-14T08:05:25.420Z,41.85
2017-07-14T08:06:26.687Z,41.06
2017-07-14T08:07:28.003Z,40.23
2017-07-14T08:08:29.333Z,39.84
2017-07-14T08:09:30.626Z,39.44
2017-07-14T08:10:31.879Z,38.76
2017-07-14T08:11:33.141Z,38.63
2017-07-14T08:12:34.409Z,38.86
2017-07-14T08:13:35.701Z,39.1
2017-07-14T08:14:37.054Z,39.7
2017-07-14T08:15:38.347Z,40.69
2017-07-14T08:16:39.612Z,41.09
2017-07-14T08:17:40.877Z,41.43
2017-07-14T08:18:42.136Z,41.12
2017-07-14T08:19:43.453Z,41.09
2017-07-14T08:20:44.782Z,40.34
2017-07-14T08:21:46.062Z,39.69
2017-07-14T08:22:47.322Z,39.24
2017-07-14T08:23:48.595Z,38.15
2017-07-14T08:24:49.942Z,37.85
2017-07-14T08:25:51.207Z,37.46
2017-07-14T08:26:52.500Z,36.99
2017-07-14T08:27:53.831Z,36.63
2017-07-14T08:28:55.086Z,36.07
2017-07-14T08:29:56.435Z,35.14
2017-07-14T08:30:57.694Z,34.42
2017-07-14T08:31:58.983Z,34.02
2017-07-14T08:33:00.252Z,33.83
2017-07-14T08:34:01.512Z,33.79
2017-07-14T08:35:02.773Z,33.86
2017-07-14T08:36:04.101Z,34.01
2017-07-14T08:37:05.405Z,34.01
2017-07-14T08:38:06.695Z,33.82
2017-07-14T08:39:07.959Z,33.55
2017-07-14T08:40:09.223Z,33.65
2017-07-14T08:41:10.493Z,33.92
2017-07-14T08:42:11.759Z,34.58
2017-07-14T08:43:13.040Z,35.4
2017-07-14T08:44:14.298Z,35.86
2017-07-14T08:45:15.554Z,36.27
2017-07-14T08:46:16.799Z,37.04
2017-07-14T08:47:18.086Z,37.76
2017-07-14T08:48:19.341Z,38.23
2017-07-14T08:49:20.610Z,38.8
2017-07-14T08:50:21.885Z,39.21
2017-07-14T08:51:23.146Z,39.62
2017-07-14T08:52:24.425Z,40.1
2017-07-14T08:53:25.664Z,40.65
2017-07-14T08:54:26.927Z,41.1
2017-07-14T08:55:28.166Z,41
2017-07-14T08:56:29.425Z,41.37
2017-07-14T08:57:30.774Z,41.82
2017-07-14T08:58:32.031Z,42.31
2017-07-14T08:59:33.310Z,42.81
2017-07-14T09:00:34.588Z,42.84
2017-07-14T09:01:36.018Z,43
2017-07-14T09:02:37.264Z,42.27
2017-07-14T09:03:38.531Z,41.22
2017-07-14T09:04:39.838Z,40.29
2017-07-14T09:05:41.075Z,39.09
2017-07-14T09:06:42.366Z,37.74
2017-07-14T09:07:43.640Z,36.58
2017-07-14T09:08:44.899Z,35.85
2017-07-14T09:09:46.193Z,35.42
2017-07-14T09:10:47.466Z,35.2
2017-07-14T09:11:48.739Z,35.7
2017-07-14T09:12:50.132Z,36.46
2017-07-14T09:13:51.292Z,37.02
2017-07-14T09:14:52.557Z,37.8
2017-07-14T09:15:53.811Z,38.95
2017-07-14T09:16:55.091Z,39.95
2017-07-14T09:17:56.330Z,40.71
2017-07-14T09:18:57.669Z,41.36
2017-07-14T09:19:59.023Z,42.01
2017-07-14T09:21:00.262Z,42.22
2017-07-14T09:22:01.528Z,41.44
2017-07-14T09:23:02.794Z,41.49
2017-07-14T09:24:04.083Z,41.85
2017-07-14T09:25:05.344Z,41.86
2017-07-14T09:26:06.621Z,41.34
2017-07-14T09:27:07.914Z,40.52
2017-07-14T09:28:09.175Z,39.88
2017-07-14T09:29:10.442Z,39.13
2017-07-14T09:30:11.705Z,38.42
2017-07-14T09:31:13.003Z,37.24
2017-07-14T09:32:14.306Z,37.28
2017-07-14T09:33:15.558Z,37.42
2017-07-14T09:34:16.823Z,37.99
2017-07-14T09:35:18.090Z,38.79
2017-07-14T09:36:19.354Z,39.62
2017-07-14T09:37:20.678Z,39.73
2017-07-14T09:38:21.948Z,39.56
2017-07-14T09:39:23.230Z,39.03
2017-07-14T09:40:24.488Z,37.95
2017-07-14T09:41:25.731Z,37.66
2017-07-14T09:42:27.012Z,37.2
2017-07-14T09:43:28.255Z,36.64
2017-07-14T09:44:29.550Z,36.36
2017-07-14T09:45:30.825Z,36.21
2017-07-14T09:46:32.108Z,35.95
2017-07-14T09:47:33.368Z,35.92
2017-07-14T09:48:34.648Z,36.06
2017-07-14T09:49:35.952Z,36.17
2017-07-14T09:50:37.184Z,35.95
2017-07-14T09:51:38.545Z,36.19
2017-07-14T09:52:39.817Z,36.57
2017-07-14T09:53:41.083Z,37.26
2017-07-14T09:54:42.340Z,37.81
2017-07-14T09:55:43.652Z,38.27
2017-07-14T09:56:44.893Z,38.61
2017-07-14T09:57:46.162Z,39.13
2017-07-14T09:58:47.434Z,39.36
2017-07-14T09:59:48.675Z,40
2017-07-14T10:00:49.936Z,40.45
2017-07-14T10:01:51.264Z,40.66
2017-07-14T10:02:52.539Z,40.34
2017-07-14T10:03:53.804Z,39.27
2017-07-14T10:04:55.064Z,38.46
2017-07-14T10:05:56.321Z,38.03
2017-07-14T10:06:57.591Z,37.21
2017-07-14T10:07:58.876Z,36.49
2017-07-14T10:09:00.133Z,36.14
2017-07-14T10:10:01.408Z,35.81
2017-07-14T10:11:02.665Z,35.74
2017-07-14T10:12:03.928Z,35.93
2017-07-14T10:13:05.179Z,36.51
2017-07-14T10:14:06.545Z,36.52
2017-07-14T10:15:07.880Z,36.6
2017-07-14T10:16:09.142Z,36.46
2017-07-14T10:17:10.397Z,36.04
2017-07-14T10:18:11.678Z,35.17
2017-07-14T10:19:12.991Z,34.14
2017-07-14T10:20:14.397Z,33.48
2017-07-14T10:21:15.677Z,33.27
2017-07-14T10:22:16.916Z,33.33
2017-07-14T10:23:18.215Z,33.33
2017-07-14T10:24:19.481Z,33.33
2017-07-14T10:25:20.748Z,33.31
2017-07-14T10:26:22.051Z,33.13
2017-07-14T10:27:23.299Z,32.91
2017-07-14T10:28:24.559Z,32.76
2017-07-14T10:29:25.818Z,32.25
2017-07-14T10:30:27.078Z,31.88
2017-07-14T10:31:28.327Z,31.73
2017-07-14T10:32:29.593Z,31.7
2017-07-14T10:33:30.851Z,31.46
2017-07-14T10:34:32.116Z,31.08
2017-07-14T10:35:33.361Z,31.11
2017-07-14T10:36:34.632Z,30.96
2017-07-14T10:37:35.879Z,30.78
2017-07-14T10:38:37.290Z,30.74
2017-07-14T10:39:38.531Z,30.76
2017-07-14T10:40:39.783Z,30.75
2017-07-14T10:41:41.048Z,31.01
2017-07-14T10:42:42.296Z,31.04
2017-07-14T10:43:43.573Z,30.72
2017-07-14T10:44:44.906Z,30.23
2017-07-14T10:45:46.191Z,30.24
2017-07-14T10:46:47.432Z,30.09
2017-07-14T10:47:48.690Z,30.12
2017-07-14T10:48:49.999Z,30.07
2017-07-14T10:49:51.250Z,29.92
2017-07-14T10:50:52.578Z,29.79
2017-07-14T10:51:53.808Z,29.79
2017-07-14T10:52:55.109Z,29.89
2017-07-14T10:53:56.352Z,29.93
2017-07-14T10:54:57.601Z,29.89
2017-07-14T10:55:58.866Z,29.96
2017-07-14T10:57:00.140Z,30.14
2017-07-14T10:58:01.483Z,30.27
2017-07-14T10:59:02.671Z,30.08
2017-07-14T11:00:03.958Z,29.94
2017-07-14T11:01:05.200Z,30.05
2017-07-14T11:02:06.456Z,29.81
2017-07-14T11:03:07.753Z,29.68
2017-07-14T11:04:08.999Z,29.84
2017-07-14T11:05:10.265Z,29.66
2017-07-14T11:06:11.524Z,29.57
2017-07-14T11:07:12.792Z,29.55
2017-07-14T11:08:14.165Z,29.35
2017-07-14T11:09:15.413Z,29.35
2017-07-14T11:10:16.684Z,29.43
2017-07-14T11:11:17.923Z,29.47
2017-07-14T11:12:19.165Z,29.38
2017-07-14T11:13:20.450Z,29.5
2017-07-14T11:14:21.700Z,29.34
2017-07-14T11:15:22.968Z,29.38
2017-07-14T11:16:24.226Z,29.4
2017-07-14T11:17:25.491Z,29.25
2017-07-14T11:18:26.774Z,28.91
2017-07-14T11:19:28.093Z,28.65
2017-07-14T11:20:29.354Z,28.68
2017-07-14T11:21:30.618Z,28.54
2017-07-14T11:22:31.919Z,28.43
2017-07-14T11:23:33.189Z,28.48
2017-07-14T11:24:34.473Z,28.54
2017-07-14T11:25:35.783Z,28.5
2017-07-14T11:26:37.025Z,28.54
2017-07-14T11:27:38.293Z,28.43
2017-07-14T11:28:39.566Z,28.44
2017-07-14T11:29:40.813Z,28.41
2017-07-14T11:30:42.064Z,28.48
2017-07-14T11:31:43.324Z,28.51
2017-07-14T11:32:44.585Z,28.33
2017-07-14T11:33:45.964Z,28.26
2017-07-14T11:34:47.196Z,28.17
2017-07-14T11:35:48.446Z,28.14
2017-07-14T11:36:49.735Z,27.99
2017-07-14T11:37:50.997Z,27.82
2017-07-14T11:38:52.243Z,27.57
2017-07-14T11:39:53.532Z,27.46
2017-07-14T11:40:54.779Z,27.32
2017-07-14T11:41:56.035Z,27.39
2017-07-14T11:42:57.283Z,27.35
2017-07-14T11:43:58.553Z,27.36
2017-07-14T11:44:59.812Z,27.46
2017-07-14T11:46:01.076Z,27.5
2017-07-14T11:47:02.343Z,27.33
2017-07-14T11:48:03.590Z,27.2
2017-07-14T11:49:04.847Z,27.11
2017-07-14T11:50:06.152Z,26.89
2017-07-14T11:51:07.425Z,26.8
2017-07-14T11:52:08.755Z,26.83
2017-07-14T11:53:09.995Z,26.81
2017-07-14T11:54:11.331Z,26.73
2017-07-14T11:55:12.597Z,26.74
2017-07-14T11:56:13.912Z,26.57
2017-07-14T11:57:15.161Z,26.58
2017-07-14T11:58:16.544Z,26.39
2017-07-14T11:59:17.818Z,26.39
2017-07-14T12:00:19.068Z,26.37
2017-07-14T12:01:20.302Z,26.27
2017-07-14T12:02:21.566Z,26.11
2017-07-14T12:03:22.829Z,26.2
2017-07-14T12:04:24.102Z,26.25
2017-07-14T12:05:25.359Z,26.22
2017-07-14T12:06:26.657Z,26.27
2017-07-14T12:07:27.909Z,26.22
2017-07-14T12:08:29.168Z,26.15
2017-07-14T12:09:30.444Z,26.02
2017-07-14T12:10:31.741Z,26.12
2017-07-14T12:11:33.040Z,26.21
2017-07-14T12:12:34.296Z,26.06
2017-07-14T12:13:35.530Z,26.06
2017-07-14T12:14:36.801Z,26.05
2017-07-14T12:15:38.064Z,26.06
2017-07-14T12:16:39.311Z,26.01
2017-07-14T12:17:40.560Z,26.31
2017-07-14T12:18:41.835Z,26.37
2017-07-14T12:19:43.097Z,26.5
2017-07-14T12:20:44.362Z,26.49
2017-07-14T12:21:45.728Z,26.64
2017-07-14T12:22:47.084Z,26.67
2017-07-14T12:23:48.344Z,26.55
2017-07-14T12:24:49.601Z,26.54
2017-07-14T12:25:50.860Z,26.4
2017-07-14T12:26:52.184Z,26.35
2017-07-14T12:27:53.472Z,26.39
2017-07-14T12:28:54.867Z,26.42
2017-07-14T12:29:56.114Z,26.43
2017-07-14T12:30:57.377Z,26.37
2017-07-14T12:31:58.660Z,26.43
2017-07-14T12:32:59.929Z,26.28
2017-07-14T12:34:01.232Z,26.04
2017-07-14T12:35:02.499Z,26.04
2017-07-14T12:36:03.762Z,25.89
2017-07-14T12:37:05.010Z,25.86
2017-07-14T12:38:06.269Z,25.74
2017-07-14T12:39:07.538Z,25.49
2017-07-14T12:40:08.781Z,25.28
2017-07-14T12:41:10.170Z,24.97
2017-07-14T12:42:11.427Z,24.8
2017-07-14T12:43:12.703Z,24.69
2017-07-14T12:44:14.013Z,24.64
2017-07-14T12:45:15.263Z,24.56
2017-07-14T12:46:16.682Z,24.39
2017-07-14T12:47:17.943Z,24.5
2017-07-14T12:48:19.200Z,24.38
2017-07-14T12:49:20.497Z,24.2
2017-07-14T12:50:21.748Z,24.27
2017-07-14T12:51:23.079Z,24.2
2017-07-14T12:52:24.426Z,24.31
2017-07-14T12:53:25.696Z,24.2
2017-07-14T12:54:26.946Z,24.27
2017-07-14T12:55:28.205Z,24.31
2017-07-14T12:56:29.477Z,24.37
2017-07-14T12:57:30.726Z,24.32
2017-07-14T12:58:32.002Z,24.32
2017-07-14T12:59:33.393Z,24.22
2017-07-14T13:00:34.533Z,24.41
2017-07-14T13:01:35.808Z,24.52
2017-07-14T13:02:37.046Z,24.73
2017-07-14T13:03:38.295Z,25
2017-07-14T13:04:39.537Z,25.09
2017-07-14T13:05:40.789Z,25.1
2017-07-14T13:06:42.063Z,25.32
2017-07-14T13:07:43.299Z,25.27
2017-07-14T13:08:44.571Z,25.19
2017-07-14T13:09:45.834Z,25.3
2017-07-14T13:10:47.161Z,25.5
2017-07-14T13:11:48.445Z,25.54